createdAt,value
2019-05-29T00:04:12.355Z,11.8
2019-05-29T00:14:25.508Z,11.9
2019-05-29T00:24:31.235Z,11.9
2019-05-29T00:34:34.676Z,11.8
2019-05-29T00:44:38.095Z,11.8
2019-05-29T00:54:41.541Z,11.7
2019-05-29T01:04:45.011Z,11.7
2019-05-29T01:14:50.371Z,11.7
2019-05-29T01:24:54.266Z,11.6
2019-05-29T01:34:57.763Z,11.6
2019-05-29T01:45:07.507Z,11.4
2019-05-29T01:55:12.340Z,11.3
2019-05-29T02:05:15.810Z,11.2
2019-05-29T02:15:25.783Z,11.2
2019-05-29T02:25:37.539Z,11.2
2019-05-29T02:35:40.987Z,11.2
2019-05-29T02:45:54.070Z,11.1
2019-05-29T02:55:58.770Z,11.1
2019-05-29T03:06:02.246Z,11.1
2019-05-29T03:16:11.005Z,11.1
2019-05-29T03:26:16.744Z,11.1
2019-05-29T03:36:20.230Z,11
2019-05-29T03:46:30.987Z,11
2019-05-29T03:56:49.758Z,11
2019-05-29T04:06:53.219Z,11
2019-05-29T04:16:59.450Z,11
2019-05-29T04:27:04.198Z,11
2019-05-29T04:37:07.723Z,10.9
2019-05-29T04:47:12.308Z,10.9
2019-05-29T04:57:16.371Z,11
2019-05-29T05:07:19.856Z,11
2019-05-29T05:17:26.422Z,11.2
2019-05-29T05:27:30.243Z,11.5
2019-05-29T05:37:34.694Z,11.9
2019-05-29T05:47:49.404Z,12.2
2019-05-29T05:58:01.544Z,12.8
2019-05-29T06:08:05.016Z,12.9
2019-05-29T06:18:20.256Z,13
2019-05-29T06:28:25.558Z,13.5
2019-05-29T06:38:29.036Z,13.8
2019-05-29T06:48:44.484Z,13.6
2019-05-29T06:59:04.520Z,13.4
2019-05-29T07:09:07.948Z,13.5
2019-05-29T07:19:25.494Z,13.5
2019-05-29T07:30:07.401Z,13.7
2019-05-29T07:40:10.872Z,13.8
2019-05-29T07:50:14.323Z,14.5
2019-05-29T08:00:17.774Z,15.7
2019-05-29T08:10:21.183Z,16.2
2019-05-29T08:20:24.616Z,15.4
2019-05-29T08:30:28.077Z,15
2019-05-29T08:40:31.573Z,14.9
2019-05-29T08:50:35.047Z,14.7
2019-05-29T09:00:38.497Z,14.7
2019-05-29T09:10:43.231Z,14.5
2019-05-29T09:21:02.459Z,14.3
2019-05-29T09:31:07.976Z,14.7
2019-05-29T09:41:11.444Z,15.4
2019-05-29T09:51:20.927Z,17.2
2019-05-29T10:01:25.938Z,16.9
2019-05-29T10:11:30.514Z,17.6
2019-05-29T10:21:40.411Z,18.6
2019-05-29T10:31:46.861Z,17.1
2019-05-29T10:41:56.674Z,16
2019-05-29T10:52:13.582Z,15.5
2019-05-29T11:02:21.072Z,15.2
2019-05-29T11:12:24.539Z,15
2019-05-29T11:22:27.991Z,14.8
2019-05-29T11:32:31.530Z,14.6
2019-05-29T11:42:35.092Z,14.4
2019-05-29T11:52:42.688Z,14.5
2019-05-29T12:02:47.199Z,14.3
2019-05-29T12:12:51.357Z,14.3
2019-05-29T12:23:18.164Z,14.3
2019-05-29T12:33:30.693Z,14.9
2019-05-29T12:43:34.135Z,15.3
2019-05-29T12:53:37.594Z,15.2
2019-05-29T13:03:44.912Z,15.2
2019-05-29T13:13:49.458Z,15.9
2019-05-29T13:23:52.873Z,15.8
2019-05-29T13:33:56.355Z,16.6
2019-05-29T13:44:02.563Z,16.8
2019-05-29T13:54:13.442Z,17.1
2019-05-29T14:04:21.962Z,16.9
2019-05-29T14:14:25.475Z,17.1
2019-05-29T14:24:30.680Z,16.9
2019-05-29T14:34:34.360Z,16.7
2019-05-29T14:44:37.885Z,17.2
2019-05-29T14:54:42.540Z,16.9
2019-05-29T15:04:46.454Z,16.7
2019-05-29T15:14:49.923Z,16.4
2019-05-29T15:25:01.704Z,16.5
2019-05-29T15:35:27.865Z,16.8
2019-05-29T15:45:31.362Z,16.7
2019-05-29T15:55:35.071Z,16.3
2019-05-29T16:05:38.568Z,16.1
2019-05-29T16:15:42.057Z,16.2
2019-05-29T16:25:45.536Z,16.2
2019-05-29T16:35:49.011Z,16.3
2019-05-29T16:45:52.519Z,16.2
2019-05-29T16:55:56.035Z,15.5
2019-05-29T17:05:59.488Z,14.8
2019-05-29T17:16:02.968Z,14.6
2019-05-29T17:26:10.465Z,14.3
2019-05-29T17:36:14.977Z,14.2
2019-05-29T17:46:19.445Z,14.1
2019-05-29T17:56:29.247Z,14
2019-05-29T18:06:40.815Z,13.8
2019-05-29T18:16:44.306Z,13.8
2019-05-29T18:26:47.730Z,14
2019-05-29T18:36:51.184Z,14.1
2019-05-29T18:46:54.664Z,14
2019-05-29T18:57:14.238Z,14
2019-05-29T19:07:19.764Z,13.8
2019-05-29T19:17:25.893Z,13.8
2019-05-29T19:27:37.295Z,13.6
2019-05-29T19:37:45.926Z,13.5
2019-05-29T19:47:49.400Z,13.3
2019-05-29T19:57:56.357Z,13.2
2019-05-29T20:08:00.408Z,13.1
2019-05-29T20:18:03.941Z,13
2019-05-29T20:28:07.377Z,12.9
2019-05-29T20:38:10.856Z,12.8
2019-05-29T20:48:14.325Z,12.6
2019-05-29T20:58:24.357Z,12.5
2019-05-29T21:08:28.690Z,12.4
2019-05-29T21:18:32.139Z,12.3
2019-05-29T21:28:40.651Z,12.2
2019-05-29T21:38:54.211Z,12.1
2019-05-29T21:48:57.625Z,12
2019-05-29T21:59:03.978Z,11.9
2019-05-29T22:09:07.899Z,11.7
2019-05-29T22:19:11.327Z,11.6
2019-05-29T22:29:18.157Z,11.6
2019-05-29T22:39:22.153Z,11.5
2019-05-29T22:49:25.594Z,11.5
2019-05-29T22:59:32.128Z,11.3
2019-05-29T23:09:35.989Z,11.1
2019-05-29T23:19:39.470Z,11
2019-05-29T23:29:48.734Z,11
2019-05-29T23:39:53.164Z,10.7
2019-05-29T23:49:57.539Z,10.7
